Time;durP1;ratioP1;P1;durP2;ratioP2;P2;SDS_P1;SDS_P2;PMS_P1;PMS_P2;Temp;Humidity;BMP_temperature;BMP_pressure;BME280_temperature;BME280_humidity;BME280_pressure;Samples;Min_cycle;Max_cycle;Signal;HPM_P1;HPM_P2
2022/11/23 00:00:43;;;;;;;15.45;8.10;;;2.90;99.90;;;;;;5129592;28;20251;-61
2022/11/23 00:03:17;;;;;;;12.50;7.68;;;2.80;99.90;;;;;;5124371;29;20035;-62
2022/11/23 00:05:48;;;;;;;;;;;2.90;99.90;;;;;;5122687;28;20062;-63
2022/11/23 00:08:20;;;;;;;12.07;6.53;;;3.00;99.90;;;;;;5144284;28;19910;-63
2022/11/23 00:10:56;;;;;;;18.30;7.80;;;2.90;99.90;;;;;;5132609;29;20425;-63
2022/11/23 00:13:34;;;;;;;16.77;7.82;;;2.90;99.90;;;;;;5103163;29;20073;-62
2022/11/23 00:16:22;;;;;;;14.40;6.50;;;2.90;99.90;;;;;;5109438;29;20034;-62
2022/11/23 00:19:01;;;;;;;16.10;7.35;;;2.80;99.90;;;;;;5128794;28;20039;-60
2022/11/23 00:21:52;;;;;;;11.55;5.72;;;2.80;99.90;;;;;;5106709;29;20040;-61
2022/11/23 00:24:26;;;;;;;14.77;7.45;;;2.80;99.90;;;;;;5102937;29;20070;-62
2022/11/23 00:26:57;;;;;;;14.73;7.07;;;2.80;99.90;;;;;;5099331;29;20058;-61
2022/11/23 00:29:33;;;;;;;12.95;6.90;;;2.80;99.90;;;;;;5085922;29;20241;-61
2022/11/23 00:32:05;;;;;;;15.35;7.28;;;2.80;99.90;;;;;;5096096;29;20044;-61
2022/11/23 00:34:39;;;;;;;14.30;6.97;;;2.80;99.90;;;;;;5098880;29;20039;-60
2022/11/23 00:37:12;;;;;;;11.75;7.03;;;2.80;99.90;;;;;;5080358;29;20313;-61
2022/11/23 00:39:46;;;;;;;14.70;7.28;;;2.80;99.90;;;;;;5099043;29;20028;-61
2022/11/23 00:42:19;;;;;;;11.38;5.78;;;2.80;99.90;;;;;;5077966;29;20051;-61
2022/11/23 00:44:52;;;;;;;10.05;5.57;;;2.80;99.90;;;;;;5102758;29;20039;-62
2022/11/23 00:47:26;;;;;;;9.73;5.35;;;2.80;99.90;;;;;;5107066;29;20072;-61
2022/11/23 00:49:59;;;;;;;9.20;5.40;;;2.80;99.90;;;;;;5099600;29;20103;-61
2022/11/23 00:52:31;;;;;;;9.13;5.40;;;2.80;99.90;;;;;;5102066;29;20070;-62
2022/11/23 00:55:02;;;;;;;7.90;4.60;;;2.80;99.90;;;;;;5122533;29;20035;-63
2022/11/23 00:57:36;;;;;;;12.32;6.00;;;2.80;99.90;;;;;;5129898;29;20035;-62
2022/11/23 01:00:08;;;;;;;7.30;4.45;;;2.80;99.90;;;;;;5136309;28;20346;-62
2022/11/23 01:02:39;;;;;;;9.73;5.07;;;2.70;99.90;;;;;;5170744;23;20046;-76
2022/11/23 01:05:11;;;;;;;7.93;5.45;;;2.70;99.90;;;;;;5161823;28;20057;-73
2022/11/23 01:07:48;;;;;;;11.38;5.75;;;2.70;99.90;;;;;;5138626;28;20070;-72
2022/11/23 01:10:19;;;;;;;9.70;4.63;;;2.70;99.90;;;;;;5165131;28;20469;-74
2022/11/23 01:12:50;;;;;;;8.18;4.53;;;2.70;99.90;;;;;;5152951;28;20022;-73
2022/11/23 01:15:24;;;;;;;9.20;4.70;;;2.80;99.90;;;;;;5159033;28;20034;-73
2022/11/23 01:17:57;;;;;;;7.90;4.55;;;2.70;99.90;;;;;;5136427;28;20042;-73
2022/11/23 01:20:33;;;;;;;8.13;5.20;;;2.80;99.90;;;;;;5127112;28;20045;-73
2022/11/23 01:23:04;;;;;;;12.40;6.22;;;2.80;99.90;;;;;;5166515;28;20349;-72
2022/11/23 01:25:40;;;;;;;9.68;5.03;;;2.80;99.90;;;;;;5152244;28;20057;-73
2022/11/23 01:28:11;;;;;;;9.48;5.57;;;2.80;99.90;;;;;;5151550;28;20033;-72
2022/11/23 01:30:43;;;;;;;10.35;6.40;;;2.80;99.90;;;;;;5143629;28;20050;-72
2022/11/23 01:33:14;;;;;;;11.63;6.65;;;2.80;99.90;;;;;;5170155;28;20042;-73
2022/11/23 01:35:47;;;;;;;13.38;6.45;;;2.80;99.90;;;;;;5155140;28;20037;-72
2022/11/23 01:38:19;;;;;;;11.20;6.10;;;2.80;99.90;;;;;;5172667;28;20033;-72
2022/11/23 01:40:50;;;;;;;10.15;5.50;;;2.80;99.90;;;;;;5151638;28;20036;-72
2022/11/23 01:43:21;;;;;;;8.80;5.47;;;2.80;99.90;;;;;;5150692;28;20034;-72
2022/11/23 01:45:55;;;;;;;8.95;5.70;;;2.80;99.90;;;;;;5170108;28;20027;-71
2022/11/23 01:48:38;;;;;;;11.68;6.38;;;2.80;99.90;;;;;;5172175;28;20208;-72
2022/11/23 01:51:29;;;;;;;11.50;5.85;;;2.80;99.90;;;;;;5169225;28;20042;-74
2022/11/23 01:54:08;;;;;;;12.00;5.88;;;2.90;99.90;;;;;;5172653;28;20284;-71
2022/11/23 01:56:49;;;;;;;12.98;5.40;;;2.90;99.90;;;;;;5172121;28;20296;-71
2022/11/23 01:59:24;;;;;;;13.18;5.90;;;2.90;99.90;;;;;;5172380;28;20312;-72
2022/11/23 02:01:55;;;;;;;9.05;5.10;;;2.90;99.90;;;;;;5171066;28;20046;-72
2022/11/23 02:04:33;;;;;;;12.63;6.13;;;2.90;99.90;;;;;;5161083;28;20932;-71
2022/11/23 02:07:05;;;;;;;10.90;6.43;;;2.90;99.90;;;;;;5152116;28;21069;-71
2022/11/23 02:09:43;;;;;;;12.15;7.20;;;2.90;99.90;;;;;;5154577;28;20038;-73
2022/11/23 02:12:16;;;;;;;12.68;6.65;;;3.00;99.90;;;;;;5171069;28;20040;-72
2022/11/23 02:14:48;;;;;;;15.48;7.50;;;3.00;99.90;;;;;;5172075;28;20041;-72
2022/11/23 02:17:20;;;;;;;15.55;7.05;;;3.00;99.90;;;;;;5171869;28;20034;-71
2022/11/23 02:20:09;;;;;;;12.27;6.57;;;3.00;99.90;;;;;;5154120;28;20053;-72
2022/11/23 02:22:58;;;;;;;14.55;6.55;;;3.10;99.90;;;;;;5154107;28;20026;-72
2022/11/23 02:25:44;;;;;;;12.77;7.10;;;3.10;99.90;;;;;;5154316;28;20026;-71
2022/11/23 02:28:24;;;;;;;11.02;5.85;;;3.10;99.90;;;;;;5152668;28;20034;-72
2022/11/23 02:30:56;;;;;;;11.05;6.50;;;3.10;99.90;;;;;;5171502;28;20307;-72
2022/11/23 02:33:29;;;;;;;11.68;6.50;;;3.10;99.90;;;;;;5171644;28;20026;-71
2022/11/23 02:36:07;;;;;;;12.50;7.03;;;3.10;99.90;;;;;;5154602;28;20862;-71
2022/11/23 02:38:39;;;;;;;12.38;7.68;;;3.10;99.90;;;;;;5153514;28;20038;-72
2022/11/23 02:41:10;;;;;;;11.43;5.63;;;3.10;99.90;;;;;;5153309;28;20034;-71
2022/11/23 02:43:47;;;;;;;10.05;5.57;;;3.00;99.90;;;;;;5171660;28;20018;-72
2022/11/23 02:46:21;;;;;;;10.60;6.18;;;3.00;99.90;;;;;;5153484;28;20046;-73
2022/11/23 02:48:55;;;;;;;12.70;6.40;;;3.00;99.90;;;;;;5171834;28;20040;-72
2022/11/23 02:51:26;;;;;;;15.25;6.70;;;2.90;99.90;;;;;;5167230;28;20053;-73
2022/11/23 02:54:00;;;;;;;11.18;6.13;;;2.90;99.90;;;;;;5174421;28;20034;-73
2022/11/23 02:56:33;;;;;;;9.85;5.60;;;2.90;99.90;;;;;;5141069;28;20048;-72
2022/11/23 02:59:05;;;;;;;9.65;4.65;;;2.90;99.90;;;;;;5161218;28;20212;-73
2022/11/23 03:01:39;;;;;;;12.15;5.90;;;2.90;99.90;;;;;;5172553;28;20042;-71
2022/11/23 03:04:15;;;;;;;9.45;5.90;;;2.90;99.90;;;;;;5173284;28;20069;-72
2022/11/23 03:06:46;;;;;;;14.65;6.68;;;2.90;99.90;;;;;;5154428;28;20033;-73
2022/11/23 03:09:17;;;;;;;9.57;5.07;;;3.00;99.90;;;;;;5165772;28;20030;-72
2022/11/23 03:11:52;;;;;;;10.93;5.90;;;3.00;99.90;;;;;;5175031;28;20044;-72
2022/11/23 03:14:23;;;;;;;9.95;6.07;;;3.00;99.90;;;;;;5157488;28;20030;-72
2022/11/23 03:17:01;;;;;;;22.92;6.20;;;2.90;99.90;;;;;;5175630;28;20030;-77
2022/11/23 03:19:34;;;;;;;10.13;6.13;;;2.90;99.90;;;;;;5157209;28;20227;-72
2022/11/23 03:22:06;;;;;;;10.17;5.50;;;2.90;99.90;;;;;;5125085;28;20042;-72
2022/11/23 03:24:37;;;;;;;7.93;5.22;;;2.90;99.90;;;;;;5154138;28;20261;-72
2022/11/23 03:27:08;;;;;;;12.25;5.45;;;2.90;99.90;;;;;;5164067;28;20010;-71
2022/11/23 03:29:40;;;;;;;9.15;5.90;;;2.80;99.90;;;;;;5173385;28;20331;-72
2022/11/23 03:32:12;;;;;;;8.63;5.15;;;2.80;99.90;;;;;;5174364;28;20034;-71
2022/11/23 03:34:46;;;;;;;11.73;5.72;;;2.80;99.90;;;;;;5173729;28;20443;-72
2022/11/23 03:37:19;;;;;;;9.88;4.93;;;2.80;99.90;;;;;;5174823;28;20328;-73
2022/11/23 03:39:56;;;;;;;9.30;4.70;;;2.80;99.90;;;;;;5157580;28;20041;-72
2022/11/23 03:42:30;;;;;;;9.80;5.63;;;2.80;99.90;;;;;;5157587;28;20196;-73
2022/11/23 03:45:06;;;;;;;6.97;4.35;;;2.80;99.90;;;;;;5174521;28;20037;-72
2022/11/23 03:47:39;;;;;;;9.55;4.95;;;2.80;99.90;;;;;;5174376;28;20053;-72
2022/11/23 03:50:11;;;;;;;9.38;5.00;;;2.80;99.90;;;;;;5157778;28;20064;-71
2022/11/23 03:52:47;;;;;;;12.50;5.43;;;2.80;99.90;;;;;;5173880;28;20057;-74
2022/11/23 03:55:18;;;;;;;10.23;4.28;;;2.80;99.90;;;;;;5155467;28;20044;-72
2022/11/23 03:57:50;;;;;;;9.30;5.05;;;2.80;99.90;;;;;;5154871;28;20036;-72
2022/11/23 04:00:24;;;;;;;6.57;4.18;;;2.80;99.90;;;;;;5174369;28;20419;-72
2022/11/23 04:02:58;;;;;;;6.22;4.25;;;2.80;99.90;;;;;;5156455;28;20054;-72
2022/11/23 04:05:31;;;;;;;6.38;4.13;;;2.80;99.90;;;;;;5162723;28;20054;-72
2022/11/23 04:08:03;;;;;;;6.28;4.18;;;2.80;99.90;;;;;;5155882;28;20044;-75
2022/11/23 04:10:37;;;;;;;7.85;4.95;;;2.80;99.90;;;;;;5156631;28;20392;-74
2022/11/23 04:13:08;;;;;;;9.82;5.30;;;2.80;99.90;;;;;;5156741;28;20045;-71
2022/11/23 04:15:47;;;;;;;9.52;4.45;;;2.80;99.90;;;;;;5171784;28;20219;-78
2022/11/23 04:18:18;;;;;;;7.43;4.68;;;2.70;99.90;;;;;;5169161;28;20050;-73
2022/11/23 04:20:49;;;;;;;7.35;5.30;;;2.70;99.90;;;;;;5165047;28;20033;-73
2022/11/23 04:23:20;;;;;;;7.38;4.68;;;2.80;99.90;;;;;;5152628;28;20042;-72
2022/11/23 04:25:54;;;;;;;8.05;5.57;;;2.80;99.90;;;;;;5154511;28;20041;-74
2022/11/23 04:28:28;;;;;;;7.68;4.72;;;2.80;99.90;;;;;;5155433;28;20033;-74
2022/11/23 04:31:00;;;;;;;7.63;4.57;;;2.70;99.90;;;;;;5155419;28;20045;-76
2022/11/23 04:33:33;;;;;;;6.22;3.92;;;2.70;99.90;;;;;;5172418;28;20030;-74
2022/11/23 04:36:12;;;;;;;10.07;4.47;;;2.70;99.90;;;;;;5174378;28;20056;-73
2022/11/23 04:38:43;;;;;;;5.43;3.60;;;2.70;99.90;;;;;;5173852;28;20032;-73
2022/11/23 04:41:18;;;;;;;6.30;3.90;;;2.70;99.90;;;;;;5173360;28;20044;-73
2022/11/23 04:43:50;;;;;;;9.63;4.22;;;2.70;99.90;;;;;;5172660;28;20037;-73
2022/11/23 04:46:21;;;;;;;7.60;4.72;;;2.70;99.90;;;;;;5173590;28;20044;-73
2022/11/23 04:48:56;;;;;;;6.93;4.30;;;2.70;99.90;;;;;;5174449;28;20034;-73
2022/11/23 04:51:32;;;;;;;6.63;3.88;;;2.70;99.90;;;;;;5153727;28;20047;-74
2022/11/23 04:54:06;;;;;;;8.68;4.90;;;2.70;99.90;;;;;;5137145;28;20034;-74
2022/11/23 04:56:37;;;;;;;6.25;4.18;;;2.70;99.90;;;;;;5159685;28;20040;-74
2022/11/23 04:59:08;;;;;;;8.65;4.95;;;2.70;99.90;;;;;;5124026;28;20036;-73
2022/11/23 05:01:40;;;;;;;5.55;4.03;;;2.80;99.90;;;;;;5172613;28;20034;-74
2022/11/23 05:04:11;;;;;;;7.20;3.90;;;2.70;99.90;;;;;;5145393;28;20361;-73
2022/11/23 05:06:42;;;;;;;9.30;4.90;;;2.70;99.90;;;;;;5155536;28;20036;-74
2022/11/23 05:09:16;;;;;;;10.07;5.53;;;2.70;99.90;;;;;;5155496;28;20036;-73
2022/11/23 05:11:47;;;;;;;;;;;2.80;99.90;;;;;;5173791;28;20044;-73
2022/11/23 05:14:18;;;;;;;12.00;5.20;;;2.80;99.90;;;;;;5172982;28;19909;-75
2022/11/23 05:16:57;;;;;;;7.93;4.38;;;2.80;99.90;;;;;;5172044;28;20030;-73
2022/11/23 05:19:28;;;;;;;8.05;4.13;;;2.80;99.90;;;;;;5153747;28;20068;-73
2022/11/23 05:22:02;;;;;;;6.65;4.10;;;2.80;99.90;;;;;;5151435;28;20035;-73
2022/11/23 05:24:36;;;;;;;;;;;2.80;99.90;;;;;;5168265;28;20048;-72
2022/11/23 05:27:10;;;;;;;7.22;4.78;;;2.80;99.90;;;;;;5171577;28;19909;-72
2022/11/23 05:29:44;;;;;;;6.40;4.43;;;2.90;99.90;;;;;;5172086;28;20042;-72
2022/11/23 05:32:18;;;;;;;8.88;4.28;;;2.90;99.90;;;;;;5154888;28;20030;-73
2022/11/23 05:34:49;;;;;;;7.32;4.68;;;2.80;99.90;;;;;;5138532;28;20040;-73
2022/11/23 05:37:20;;;;;;;6.43;4.22;;;2.80;99.90;;;;;;5172598;28;20041;-72
2022/11/23 05:39:59;;;;;;;5.10;3.47;;;2.80;99.90;;;;;;5172731;28;20032;-75
2022/11/23 05:42:33;;;;;;;4.43;3.13;;;2.80;99.90;;;;;;5175594;28;20060;-72
2022/11/23 05:45:05;;;;;;;5.35;3.65;;;2.70;99.90;;;;;;5158983;28;20223;-74
2022/11/23 05:47:37;;;;;;;3.95;3.22;;;2.70;99.90;;;;;;5159181;28;20032;-72
2022/11/23 05:50:08;;;;;;;6.00;3.17;;;2.70;99.90;;;;;;5158154;28;20235;-73
2022/11/23 05:52:39;;;;;;;4.65;3.58;;;2.70;99.90;;;;;;5166512;28;20453;-73
2022/11/23 05:55:12;;;;;;;4.45;3.22;;;2.70;99.90;;;;;;5157457;28;20050;-73
2022/11/23 05:57:45;;;;;;;5.60;2.97;;;2.70;99.90;;;;;;5126812;28;20038;-72
2022/11/23 06:00:20;;;;;;;4.67;3.03;;;2.70;99.90;;;;;;5157326;28;20055;-73
2022/11/23 06:02:51;;;;;;;4.22;2.92;;;2.70;99.90;;;;;;5146315;28;20624;-73
2022/11/23 06:05:22;;;;;;;5.90;3.17;;;2.70;99.90;;;;;;5143513;28;20062;-72
2022/11/23 06:07:54;;;;;;;8.25;3.67;;;2.70;99.90;;;;;;5166324;28;20023;-73
2022/11/23 06:10:29;;;;;;;4.55;2.92;;;2.70;99.90;;;;;;5171275;28;20040;-75
2022/11/23 06:13:03;;;;;;;4.95;3.05;;;2.70;99.90;;;;;;5171275;28;20046;-78
2022/11/23 06:15:37;;;;;;;4.20;3.33;;;2.70;99.90;;;;;;5136346;28;20046;-73
2022/11/23 06:18:09;;;;;;;4.28;2.85;;;2.70;99.90;;;;;;5123666;28;20043;-73
2022/11/23 06:20:43;;;;;;;2.95;2.60;;;2.70;99.90;;;;;;5165008;28;20026;-72
2022/11/23 06:23:19;;;;;;;5.95;3.60;;;2.80;99.90;;;;;;5170950;28;20048;-73
2022/11/23 06:25:53;;;;;;;4.00;2.80;;;2.70;99.90;;;;;;5172130;28;20026;-73
2022/11/23 06:28:30;;;;;;;6.38;2.97;;;2.70;99.90;;;;;;5171127;28;20030;-73
2022/11/23 06:31:05;;;;;;;3.90;3.00;;;2.70;99.90;;;;;;5170753;28;20226;-73
2022/11/23 06:33:39;;;;;;;5.40;3.30;;;2.70;99.90;;;;;;5154010;28;20050;-73
2022/11/23 06:36:11;;;;;;;5.53;3.28;;;2.70;99.90;;;;;;5154918;28;20034;-74
2022/11/23 06:38:44;;;;;;;4.13;2.70;;;2.80;99.90;;;;;;5170428;28;20042;-73
2022/11/23 06:41:16;;;;;;;5.57;3.05;;;2.70;99.90;;;;;;5154486;28;20207;-74
2022/11/23 06:43:48;;;;;;;3.90;2.65;;;2.80;99.90;;;;;;5170869;28;20035;-72
2022/11/23 06:46:22;;;;;;;5.47;2.90;;;2.80;99.90;;;;;;5171797;28;20354;-75
2022/11/23 06:48:55;;;;;;;4.13;3.72;;;2.80;99.90;;;;;;5171588;28;20038;-74
2022/11/23 06:51:32;;;;;;;6.85;3.65;;;2.80;99.90;;;;;;5170281;28;20323;-74
2022/11/23 06:54:05;;;;;;;4.72;3.10;;;2.80;99.90;;;;;;5170491;28;20031;-74
2022/11/23 06:56:37;;;;;;;4.15;3.05;;;2.90;99.90;;;;;;5171708;28;20365;-74
2022/11/23 06:59:10;;;;;;;4.00;2.90;;;2.90;99.90;;;;;;5171674;28;20239;-74
2022/11/23 07:01:42;;;;;;;5.07;2.87;;;2.90;99.90;;;;;;5171427;28;20110;-74
2022/11/23 07:04:16;;;;;;;3.55;2.80;;;2.90;99.90;;;;;;5160807;28;20038;-73
2022/11/23 07:06:49;;;;;;;2.57;2.37;;;2.90;99.90;;;;;;5154859;28;20231;-74
2022/11/23 07:09:25;;;;;;;4.15;2.78;;;2.90;99.90;;;;;;5169536;28;20311;-74
2022/11/23 07:11:57;;;;;;;3.00;2.25;;;2.90;99.90;;;;;;5170585;28;20270;-74
2022/11/23 07:14:34;;;;;;;2.55;2.25;;;2.90;99.90;;;;;;5166618;28;20026;-74
2022/11/23 07:17:17;;;;;;;2.88;2.22;;;2.90;99.90;;;;;;5171376;28;20041;-74
2022/11/23 07:19:48;;;;;;;3.65;2.22;;;2.90;99.90;;;;;;5151441;28;20556;-74
2022/11/23 07:22:25;;;;;;;5.72;2.78;;;2.90;99.90;;;;;;5170549;28;20045;-78
2022/11/23 07:24:56;;;;;;;4.68;2.10;;;2.90;99.90;;;;;;5170401;28;20519;-77
2022/11/23 07:27:29;;;;;;;3.47;2.17;;;2.90;99.90;;;;;;5145945;28;20043;-77
2022/11/23 07:30:01;;;;;;;22.98;13.35;;;2.90;99.90;;;;;;5154628;28;20328;-78
2022/11/23 07:32:35;;;;;;;97.25;53.33;;;2.90;99.90;;;;;;5168771;28;20515;-78
2022/11/23 07:35:09;;;;;;;11.07;9.57;;;2.90;99.90;;;;;;5169585;28;20040;-74
2022/11/23 07:37:40;;;;;;;8.65;5.72;;;3.00;99.90;;;;;;5167937;28;20030;-73
2022/11/23 07:40:11;;;;;;;7.30;5.28;;;3.00;99.90;;;;;;5155482;28;20026;-73
2022/11/23 07:42:45;;;;;;;21.23;18.98;;;3.00;99.90;;;;;;5141024;28;20038;-74
2022/11/23 07:45:19;;;;;;;25.70;16.13;;;3.00;99.90;;;;;;5154412;28;20038;-74
2022/11/23 07:48:01;;;;;;;4.20;3.05;;;3.00;99.90;;;;;;5168806;28;20041;-73
2022/11/23 07:50:34;;;;;;;5.22;3.35;;;3.00;99.90;;;;;;5172064;28;20030;-73
2022/11/23 07:53:24;;;;;;;4.88;2.92;;;3.00;99.90;;;;;;5173372;28;20049;-74
2022/11/23 07:55:57;;;;;;;7.13;5.32;;;3.10;99.90;;;;;;5156385;28;20026;-72
2022/11/23 07:58:32;;;;;;;9.30;6.47;;;3.10;99.90;;;;;;5159528;28;20023;-73
2022/11/23 08:01:05;;;;;;;39.92;22.45;;;3.10;99.90;;;;;;5161446;28;20052;-72
2022/11/23 08:03:36;;;;;;;23.98;14.38;;;3.20;99.90;;;;;;5178574;28;20258;-75
2022/11/23 08:06:11;;;;;;;8.80;5.53;;;3.20;99.90;;;;;;5157736;28;20046;-73
2022/11/23 08:08:43;;;;;;;15.10;8.75;;;3.30;99.90;;;;;;5170689;28;20037;-73
2022/11/23 08:11:17;;;;;;;35.92;22.13;;;3.30;99.90;;;;;;5143181;28;20065;-73
2022/11/23 08:13:48;;;;;;;220.30;102.88;;;3.30;99.90;;;;;;5159918;28;20315;-74
2022/11/23 08:16:20;;;;;;;22.75;13.43;;;3.30;99.90;;;;;;5151971;28;20043;-74
2022/11/23 08:18:51;;;;;;;6.47;3.88;;;3.40;99.90;;;;;;5197354;28;20022;-73
2022/11/23 08:21:25;;;;;;;9.60;7.10;;;3.40;99.90;;;;;;5173983;28;20030;-73
2022/11/23 08:23:57;;;;;;;84.85;42.20;;;3.40;99.90;;;;;;5161516;28;20455;-73
2022/11/23 08:26:32;;;;;;;5.00;3.47;;;3.50;99.90;;;;;;5173717;28;20045;-76
2022/11/23 08:29:06;;;;;;;3.25;2.33;;;3.50;99.90;;;;;;5153568;28;20038;-73
2022/11/23 08:31:40;;;;;;;3.65;2.70;;;3.50;99.90;;;;;;5154223;28;20064;-74
2022/11/23 08:34:13;;;;;;;3.80;2.92;;;3.60;99.90;;;;;;5150972;28;20034;-74
2022/11/23 08:36:44;;;;;;;4.13;2.60;;;3.60;99.90;;;;;;5166010;28;20037;-73
2022/11/23 08:39:19;;;;;;;4.68;3.95;;;3.60;99.90;;;;;;5173936;28;20522;-74
2022/11/23 08:41:51;;;;;;;;;;;3.70;99.90;;;;;;5173964;28;20034;-73
2022/11/23 08:44:24;;;;;;;3.55;3.17;;;3.70;99.90;;;;;;5171350;28;20409;-73
2022/11/23 08:47:00;;;;;;;2.72;1.98;;;3.70;99.90;;;;;;5166295;28;20034;-74
2022/11/23 08:49:31;;;;;;;2.83;2.22;;;3.80;99.90;;;;;;5173385;28;20331;-74
2022/11/23 08:52:04;;;;;;;5.35;4.80;;;3.90;99.90;;;;;;5177516;28;20071;-74
2022/11/23 08:54:35;;;;;;;8.93;6.82;;;4.10;99.90;;;;;;5175683;28;20030;-74
2022/11/23 08:57:09;;;;;;;2.88;2.05;;;4.20;99.90;;;;;;5153296;28;20485;-73
2022/11/23 08:59:43;;;;;;;5.13;1.67;;;4.30;99.90;;;;;;5153410;28;20048;-73
2022/11/23 09:02:17;;;;;;;1.80;1.70;;;4.40;99.90;;;;;;5155043;28;20253;-74
2022/11/23 09:04:50;;;;;;;2.35;2.08;;;4.60;99.90;;;;;;5161755;28;20054;-73
2022/11/23 09:07:24;;;;;;;3.17;2.78;;;4.40;99.90;;;;;;5154822;28;20048;-75
2022/11/23 09:09:56;;;;;;;1.67;1.40;;;4.40;99.90;;;;;;5173089;28;20052;-73
2022/11/23 09:12:27;;;;;;;1.95;1.52;;;4.40;99.90;;;;;;5159437;28;20353;-73
2022/11/23 09:14:58;;;;;;;1.60;1.50;;;4.30;99.90;;;;;;5149037;28;20038;-76
2022/11/23 09:17:31;;;;;;;1.48;1.38;;;4.20;99.90;;;;;;5171775;28;20034;-75
2022/11/23 09:20:07;;;;;;;2.55;2.15;;;4.20;99.90;;;;;;5149643;28;20030;-75
2022/11/23 09:22:42;;;;;;;6.25;5.13;;;4.20;99.90;;;;;;5142803;28;20053;-75
2022/11/23 09:25:16;;;;;;;2.50;1.75;;;4.20;99.90;;;;;;5160379;28;20018;-75
2022/11/23 09:27:51;;;;;;;4.68;3.10;;;4.30;99.90;;;;;;5136543;28;20038;-75
2022/11/23 09:30:22;;;;;;;;;;;4.40;99.90;;;;;;5171232;28;20439;-76
2022/11/23 09:32:57;;;;;;;5.15;4.28;;;4.40;99.90;;;;;;5172032;28;19989;-75
2022/11/23 09:35:31;;;;;;;6.00;2.63;;;4.30;99.90;;;;;;5171854;28;20606;-75
2022/11/23 09:38:02;;;;;;;3.23;2.33;;;4.30;99.90;;;;;;5170959;28;20042;-75
2022/11/23 09:40:38;;;;;;;101.28;62.92;;;4.20;99.90;;;;;;5171240;28;20331;-75
2022/11/23 09:43:22;;;;;;;51.67;27.88;;;4.10;99.90;;;;;;5169586;28;20022;-75
2022/11/23 09:45:57;;;;;;;47.60;25.30;;;4.10;99.90;;;;;;5172261;28;20023;-75
2022/11/23 09:48:50;;;;;;;20.77;13.57;;;4.10;99.90;;;;;;5171496;28;20505;-74
2022/11/23 09:51:26;;;;;;;139.52;80.80;;;4.10;99.90;;;;;;5154680;28;20038;-75
2022/11/23 09:54:08;;;;;;;9.15;6.68;;;4.00;99.90;;;;;;5171958;28;20149;-74
2022/11/23 09:56:45;;;;;;;8.98;6.75;;;4.00;99.90;;;;;;5171523;28;20492;-74
2022/11/23 09:59:28;;;;;;;33.95;23.65;;;4.00;99.90;;;;;;5163544;28;20029;-75
2022/11/23 10:02:21;;;;;;;5.07;4.20;;;4.30;99.90;;;;;;5167430;28;20239;-75
2022/11/23 10:04:53;;;;;;;44.85;34.47;;;4.40;99.90;;;;;;5141513;28;20062;-75
2022/11/23 10:07:54;;;;;;;3.03;2.70;;;4.50;99.90;;;;;;5139034;28;20046;-77
2022/11/23 10:10:37;;;;;;;47.75;38.95;;;4.40;99.90;;;;;;5144454;28;20050;-74
2022/11/23 10:13:08;;;;;;;15.65;13.07;;;4.40;99.90;;;;;;5168986;28;20030;-74
2022/11/23 10:16:03;;;;;;;10.80;8.45;;;4.40;99.90;;;;;;5171818;28;20389;-77
2022/11/23 10:18:59;;;;;;;4.45;3.28;;;4.40;99.90;;;;;;5154591;28;20026;-74
2022/11/23 10:21:45;;;;;;;3.60;2.67;;;4.40;99.90;;;;;;5167973;28;20030;-74
2022/11/23 10:24:23;;;;;;;8.95;6.55;;;4.40;99.90;;;;;;5154403;28;20044;-74
2022/11/23 10:26:55;;;;;;;16.65;14.88;;;4.50;99.90;;;;;;5153227;28;20052;-74
2022/11/23 10:29:33;;;;;;;5.60;4.13;;;4.40;99.90;;;;;;5152180;28;20038;-74
2022/11/23 10:32:13;;;;;;;17.92;12.40;;;4.50;99.90;;;;;;5171798;28;20063;-74
2022/11/23 10:34:57;;;;;;;5.47;4.15;;;4.50;99.90;;;;;;5170336;28;20030;-73
2022/11/23 10:37:39;;;;;;;3.33;2.55;;;4.60;99.90;;;;;;5165551;28;20034;-74
2022/11/23 10:40:25;;;;;;;3.80;2.78;;;4.60;99.90;;;;;;5156400;28;20034;-74
2022/11/23 10:43:00;;;;;;;5.32;4.18;;;4.80;99.90;;;;;;5153902;28;20034;-74
2022/11/23 10:45:34;;;;;;;6.05;4.85;;;4.80;99.90;;;;;;5169902;28;20056;-74
2022/11/23 10:48:08;;;;;;;5.82;4.10;;;4.90;99.90;;;;;;5166238;28;20227;-74
2022/11/23 10:50:43;;;;;;;6.35;4.30;;;5.10;99.90;;;;;;5155829;28;20039;-74
2022/11/23 10:53:27;;;;;;;2.90;2.33;;;5.00;99.90;;;;;;5153463;28;20038;-74
2022/11/23 10:56:02;;;;;;;5.65;3.92;;;5.00;99.90;;;;;;5152978;28;20098;-73
2022/11/23 10:58:45;;;;;;;2.75;2.45;;;5.10;99.90;;;;;;5171457;28;20026;-76
2022/11/23 11:01:28;;;;;;;4.45;3.85;;;5.20;99.90;;;;;;5170422;28;20331;-73
2022/11/23 11:04:03;;;;;;;4.65;3.88;;;5.30;99.90;;;;;;5151380;28;20324;-73
2022/11/23 11:06:37;;;;;;;5.18;3.92;;;5.30;99.90;;;;;;5159756;28;20058;-74
2022/11/23 11:09:31;;;;;;;3.35;2.28;;;5.30;99.90;;;;;;5154111;28;20042;-74
2022/11/23 11:12:02;;;;;;;13.05;9.57;;;5.40;99.90;;;;;;5153868;28;20038;-74
2022/11/23 11:14:36;;;;;;;4.78;3.33;;;5.40;99.90;;;;;;5171411;28;20045;-75
2022/11/23 11:17:38;;;;;;;95.55;74.65;;;5.40;99.90;;;;;;5174911;28;20540;-74
2022/11/23 11:20:27;;;;;;;6.95;4.20;;;5.40;99.90;;;;;;5157500;28;20022;-74
2022/11/23 11:23:17;;;;;;;4.70;3.83;;;5.40;99.90;;;;;;5174693;28;20052;-76
2022/11/23 11:25:49;;;;;;;8.77;7.43;;;5.40;99.90;;;;;;5174006;28;20030;-75
2022/11/23 11:28:36;;;;;;;2.80;2.50;;;5.40;99.90;;;;;;5175044;28;20351;-73
2022/11/23 11:31:32;;;;;;;14.70;11.57;;;5.30;99.90;;;;;;5155268;28;20499;-78
2022/11/23 11:34:21;;;;;;;28.88;25.80;;;5.30;99.90;;;;;;5173994;28;20038;-73
2022/11/23 11:37:22;;;;;;;2.83;2.42;;;5.40;99.90;;;;;;5174504;28;20034;-74
2022/11/23 11:40:16;;;;;;;3.60;2.67;;;5.40;99.90;;;;;;5174463;28;20243;-75
2022/11/23 11:43:08;;;;;;;5.20;4.40;;;5.50;99.90;;;;;;5166459;28;20034;-75
2022/11/23 11:45:46;;;;;;;1.83;1.38;;;5.50;99.90;;;;;;5162404;28;20014;-74
2022/11/23 11:48:38;;;;;;;3.90;2.20;;;5.50;99.90;;;;;;5174459;28;20026;-75
2022/11/23 11:51:22;;;;;;;2.47;2.05;;;5.60;99.90;;;;;;5174310;28;20522;-74
2022/11/23 11:54:23;;;;;;;2.28;1.75;;;5.60;99.90;;;;;;5154857;28;20029;-73
2022/11/23 11:57:18;;;;;;;2.10;1.60;;;5.50;99.90;;;;;;5156336;28;20238;-73
2022/11/23 11:59:55;;;;;;;3.05;1.80;;;5.60;99.90;;;;;;5157082;28;20056;-74
2022/11/23 12:02:50;;;;;;;3.15;2.58;;;5.60;99.90;;;;;;5154458;28;20334;-73
2022/11/23 12:05:37;;;;;;;5.88;4.28;;;5.60;99.90;;;;;;5143351;28;20066;-75
2022/11/23 12:08:19;;;;;;;3.13;2.10;;;5.60;99.90;;;;;;5145665;28;20030;-73
2022/11/23 12:11:04;;;;;;;3.08;2.22;;;5.60;99.90;;;;;;5153003;28;20041;-73
2022/11/23 12:13:41;;;;;;;1.50;1.40;;;5.70;99.90;;;;;;5155453;28;20050;-75
2022/11/23 12:16:30;;;;;;;3.42;2.42;;;5.70;99.90;;;;;;5154994;28;20046;-73
2022/11/23 12:19:32;;;;;;;4.05;2.10;;;5.60;99.90;;;;;;5155896;28;20044;-73
2022/11/23 12:22:34;;;;;;;2.97;2.00;;;5.70;99.90;;;;;;5156621;28;20028;-75
2022/11/23 12:25:22;;;;;;;4.95;3.50;;;5.80;99.90;;;;;;5155092;28;20045;-75
2022/11/23 12:28:41;;;;;;;2.90;2.00;;;5.80;99.90;;;;;;5167570;28;20033;-75
2022/11/23 12:31:42;;;;;;;4.50;3.70;;;5.80;99.90;;;;;;5143318;28;20322;-74
2022/11/23 12:34:26;;;;;;;1.90;1.67;;;5.80;99.90;;;;;;5167220;28;20069;-74
2022/11/23 12:37:47;;;;;;;1.45;1.35;;;5.90;99.90;;;;;;5166440;28;20022;-74
2022/11/23 12:40:36;;;;;;;1.35;1.25;;;5.80;99.90;;;;;;5111207;29;20132;-74
2022/11/23 12:43:10;;;;;;;1.70;1.60;;;5.80;99.90;;;;;;5110579;29;20043;-74
2022/11/23 12:45:52;;;;;;;1.65;1.33;;;5.70;99.90;;;;;;5110850;29;20182;-74
2022/11/23 12:48:44;;;;;;;1.75;1.55;;;5.80;99.90;;;;;;5110770;29;20037;-73
2022/11/23 12:51:55;;;;;;;3.13;2.53;;;5.80;99.90;;;;;;5110948;29;20030;-73
2022/11/23 12:54:37;;;;;;;2.25;1.83;;;5.80;99.90;;;;;;5109986;29;20062;-75
2022/11/23 12:57:32;;;;;;;1.80;1.70;;;5.80;99.90;;;;;;5094586;29;20358;-75
2022/11/23 13:00:17;;;;;;;2.58;1.52;;;5.80;99.90;;;;;;5089234;29;20406;-75
2022/11/23 13:02:57;;;;;;;3.03;2.70;;;5.80;99.90;;;;;;5092034;29;20255;-75
2022/11/23 13:05:46;;;;;;;1.40;1.30;;;5.80;99.90;;;;;;5099647;29;20360;-74
2022/11/23 13:08:39;;;;;;;2.65;1.33;;;5.80;99.90;;;;;;5109994;29;20034;-75
2022/11/23 13:11:36;;;;;;;1.35;1.23;;;5.80;99.90;;;;;;5109178;29;20015;-74
2022/11/23 13:14:34;;;;;;;13.25;9.50;;;5.70;99.90;;;;;;5081691;29;20048;-75
2022/11/23 13:17:16;;;;;;;14.00;9.90;;;5.80;99.90;;;;;;5135344;28;20334;-74
2022/11/23 13:20:11;;;;;;;9.75;7.63;;;5.70;99.90;;;;;;5153767;28;20053;-74
2022/11/23 13:22:45;;;;;;;;;;;5.80;99.90;;;;;;5156288;28;20090;-74
2022/11/23 13:25:27;;;;;;;2.00;1.80;;;5.70;99.90;;;;;;5171017;28;20511;-74
2022/11/23 13:28:04;;;;;;;2.70;2.10;;;5.60;99.90;;;;;;5172741;28;20029;-74
2022/11/23 13:30:37;;;;;;;1.35;1.25;;;5.60;99.90;;;;;;5172274;28;20033;-74
2022/11/23 13:33:11;;;;;;;1.33;1.23;;;5.60;99.90;;;;;;5169970;28;20042;-74
2022/11/23 13:35:42;;;;;;;3.17;2.55;;;5.60;99.90;;;;;;5171448;28;20448;-73
2022/11/23 13:38:20;;;;;;;2.03;1.60;;;5.60;99.90;;;;;;5171493;28;20028;-75
2022/11/23 13:40:54;;;;;;;1.25;1.20;;;5.60;99.90;;;;;;5171509;28;20315;-75
2022/11/23 13:43:31;;;;;;;1.60;1.48;;;5.60;99.90;;;;;;5172489;28;20576;-73
2022/11/23 13:46:27;;;;;;;1.50;1.40;;;5.60;99.90;;;;;;5172103;28;20034;-73